createdAt,value
2022-10-30T00:00:38.453Z,10.03
2022-10-30T00:03:06.475Z,10.06
2022-10-30T00:05:34.414Z,10.10
2022-10-30T00:08:02.456Z,10.15
2022-10-30T00:10:30.438Z,10.24
2022-10-30T00:12:58.285Z,10.20
2022-10-30T00:15:26.142Z,10.09
2022-10-30T00:17:55.672Z,10.08
2022-10-30T00:20:23.798Z,9.97
2022-10-30T00:22:51.631Z,9.90
2022-10-30T00:25:19.616Z,9.78
2022-10-30T00:27:47.491Z,9.78
2022-10-30T00:30:15.539Z,9.75
2022-10-30T00:32:43.986Z,9.74
2022-10-30T00:35:13.260Z,9.72
2022-10-30T00:37:41.247Z,9.59
2022-10-30T00:40:15.525Z,9.53
2022-10-30T00:42:43.636Z,9.48
2022-10-30T00:45:13.131Z,9.41
2022-10-30T00:47:44.999Z,9.46
2022-10-30T00:50:19.302Z,9.44
2022-10-30T00:52:52.363Z,9.45
2022-10-30T00:55:26.288Z,9.46
2022-10-30T00:57:55.018Z,9.45
2022-10-30T01:00:25.543Z,9.33
2022-10-30T01:02:54.090Z,9.24
2022-10-30T01:05:26.207Z,9.28
2022-10-30T01:07:54.111Z,9.16
2022-10-30T01:10:23.028Z,9.06
2022-10-30T01:12:52.672Z,9.10
2022-10-30T01:15:28.288Z,8.87
2022-10-30T01:18:20.607Z,8.82
2022-10-30T01:21:13.015Z,8.92
2022-10-30T01:23:53.966Z,9.00
2022-10-30T01:26:33.542Z,9.04
2022-10-30T01:29:15.700Z,8.92
2022-10-30T01:31:56.828Z,9.01
2022-10-30T01:34:36.381Z,9.02
2022-10-30T01:37:11.277Z,8.90
2022-10-30T01:39:42.115Z,8.76
2022-10-30T01:42:14.355Z,8.75
2022-10-30T01:44:42.595Z,8.70
2022-10-30T01:47:23.081Z,8.63
2022-10-30T01:50:21.216Z,8.65
2022-10-30T01:52:58.874Z,8.74
2022-10-30T01:55:37.638Z,8.71
2022-10-30T01:58:12.798Z,8.77
2022-10-30T02:00:44.890Z,8.82
2022-10-30T02:03:13.298Z,8.87
2022-10-30T02:05:45.118Z,8.76
2022-10-30T02:08:14.466Z,8.77
2022-10-30T02:10:43.615Z,8.77
2022-10-30T02:13:11.739Z,8.77
2022-10-30T02:15:40.376Z,8.77
2022-10-30T02:18:09.172Z,8.75
2022-10-30T02:20:38.800Z,8.74
2022-10-30T02:23:08.959Z,8.70
2022-10-30T02:25:37.109Z,8.60
2022-10-30T02:28:05.262Z,8.62
2022-10-30T02:30:33.223Z,8.62
2022-10-30T02:33:01.563Z,8.62
2022-10-30T02:35:31.093Z,8.65
2022-10-30T02:38:00.737Z,8.56
2022-10-30T02:40:28.818Z,8.58
2022-10-30T02:42:56.691Z,8.58
2022-10-30T02:45:24.568Z,8.64
2022-10-30T02:47:52.439Z,8.60
2022-10-30T02:50:20.338Z,8.62
2022-10-30T02:52:48.205Z,8.65
2022-10-30T02:55:17.663Z,8.65
2022-10-30T02:57:45.571Z,8.70
2022-10-30T03:00:14.694Z,8.71
2022-10-30T03:02:42.784Z,8.72
2022-10-30T03:05:10.807Z,8.75
2022-10-30T03:07:38.658Z,8.76
2022-10-30T03:10:07.134Z,8.71
2022-10-30T03:12:36.342Z,8.74
2022-10-30T03:15:04.322Z,8.63
2022-10-30T03:17:32.319Z,8.48
2022-10-30T03:20:00.222Z,8.42
2022-10-30T03:22:28.083Z,8.29
2022-10-30T03:24:55.918Z,8.28
2022-10-30T03:27:23.799Z,8.33
2022-10-30T03:29:53.013Z,8.27
2022-10-30T03:32:20.919Z,8.28
2022-10-30T03:34:48.794Z,8.29
2022-10-30T03:37:16.644Z,8.35
2022-10-30T03:39:44.536Z,8.45
2022-10-30T03:42:12.371Z,8.37
2022-10-30T03:44:40.224Z,8.35
2022-10-30T03:47:09.429Z,8.32
2022-10-30T03:49:37.240Z,8.31
2022-10-30T03:52:05.197Z,8.26
2022-10-30T03:54:33.056Z,8.33
2022-10-30T03:57:00.925Z,8.22
2022-10-30T03:59:29.191Z,8.22
2022-10-30T04:01:57.174Z,8.12
2022-10-30T04:04:26.460Z,7.98
2022-10-30T04:06:54.302Z,7.94
2022-10-30T04:09:22.176Z,7.87
2022-10-30T04:11:50.057Z,7.88
2022-10-30T04:14:17.885Z,7.84
2022-10-30T04:16:45.773Z,7.74
2022-10-30T04:19:13.643Z,7.70
2022-10-30T04:21:43.810Z,7.61
2022-10-30T04:24:11.743Z,7.60
2022-10-30T04:26:39.600Z,7.60
2022-10-30T04:29:07.422Z,7.53
2022-10-30T04:31:35.265Z,7.47
2022-10-30T04:34:03.145Z,7.46
2022-10-30T04:36:33.934Z,7.32
2022-10-30T04:39:03.491Z,7.18
2022-10-30T04:41:31.377Z,7.09
2022-10-30T04:44:00.386Z,7.07
2022-10-30T04:46:29.110Z,7.09
2022-10-30T04:48:57.340Z,6.95
2022-10-30T04:51:25.454Z,6.94
2022-10-30T04:53:54.186Z,6.88
2022-10-30T04:56:23.515Z,6.86
2022-10-30T04:58:52.422Z,6.93
2022-10-30T05:01:20.844Z,6.92
2022-10-30T05:03:52.020Z,6.97
2022-10-30T05:06:25.071Z,6.92
2022-10-30T05:08:53.282Z,6.91
2022-10-30T05:11:21.175Z,6.89
2022-10-30T05:13:50.501Z,6.95
2022-10-30T05:16:18.482Z,6.97
2022-10-30T05:18:46.387Z,7.11
2022-10-30T05:21:14.290Z,7.07
2022-10-30T05:23:42.159Z,7.18
2022-10-30T05:26:09.992Z,7.23
2022-10-30T05:28:38.029Z,7.26
2022-10-30T05:31:07.367Z,7.37
2022-10-30T05:33:35.218Z,7.45
2022-10-30T05:36:03.134Z,7.45
2022-10-30T05:38:31.003Z,7.55
2022-10-30T05:40:58.904Z,7.65
2022-10-30T05:43:26.816Z,7.72
2022-10-30T05:45:54.656Z,7.77
2022-10-30T05:48:24.313Z,7.81
2022-10-30T05:50:52.933Z,7.83
2022-10-30T05:53:20.819Z,7.81
2022-10-30T05:55:48.807Z,7.88
2022-10-30T05:58:16.951Z,7.90
2022-10-30T06:00:45.434Z,7.97
2022-10-30T06:03:13.882Z,8.13
2022-10-30T06:05:47.266Z,8.19
2022-10-30T06:08:16.813Z,8.22
2022-10-30T06:10:44.828Z,8.26
2022-10-30T06:13:12.852Z,8.31
2022-10-30T06:15:40.815Z,8.26
2022-10-30T06:18:08.794Z,8.24
2022-10-30T06:20:36.767Z,8.06
2022-10-30T06:23:08.271Z,8.10
2022-10-30T06:25:41.096Z,8.14
2022-10-30T06:28:10.618Z,8.24
2022-10-30T06:30:39.162Z,8.29
2022-10-30T06:33:08.133Z,8.29
2022-10-30T06:35:36.294Z,8.36
2022-10-30T06:38:05.669Z,8.42
2022-10-30T06:40:33.722Z,8.49
2022-10-30T06:43:02.013Z,8.56
2022-10-30T06:45:30.321Z,8.65
2022-10-30T06:47:58.678Z,8.68
2022-10-30T06:50:27.316Z,8.79
2022-10-30T06:52:56.096Z,8.85
2022-10-30T06:55:25.451Z,8.88
2022-10-30T06:57:57.324Z,8.98
2022-10-30T07:00:25.647Z,8.99
2022-10-30T07:02:58.306Z,9.10
2022-10-30T07:05:26.597Z,9.18
2022-10-30T07:07:57.503Z,9.25
2022-10-30T07:10:27.088Z,9.25
2022-10-30T07:12:56.297Z,9.29
2022-10-30T07:15:24.652Z,9.44
2022-10-30T07:18:00.106Z,9.55
2022-10-30T07:20:30.188Z,9.64
2022-10-30T07:22:58.292Z,9.82
2022-10-30T07:25:28.152Z,9.93
2022-10-30T07:27:57.554Z,10.03
2022-10-30T07:30:27.718Z,10.09
2022-10-30T07:33:00.989Z,10.20
2022-10-30T07:35:29.996Z,10.30
2022-10-30T07:38:03.545Z,10.37
2022-10-30T07:40:33.157Z,10.49
2022-10-30T07:43:03.646Z,10.61
2022-10-30T07:45:32.456Z,10.64
2022-10-30T07:48:00.775Z,10.85
2022-10-30T07:50:29.115Z,10.93
2022-10-30T07:52:57.006Z,11.13
2022-10-30T07:55:24.901Z,11.20
2022-10-30T07:57:54.263Z,11.33
2022-10-30T08:00:22.288Z,11.44
2022-10-30T08:02:51.795Z,11.65
2022-10-30T08:05:19.899Z,11.69
2022-10-30T08:07:49.064Z,11.91
2022-10-30T08:10:17.139Z,12.01
2022-10-30T08:12:45.918Z,12.18
2022-10-30T08:15:15.767Z,12.38
2022-10-30T08:17:44.704Z,12.49
2022-10-30T08:20:14.263Z,12.62
2022-10-30T08:22:46.796Z,12.64
2022-10-30T08:25:15.133Z,12.68
2022-10-30T08:27:52.313Z,12.88
2022-10-30T08:30:21.918Z,13.02
2022-10-30T08:32:49.991Z,13.20
2022-10-30T08:35:19.970Z,13.30
2022-10-30T08:37:48.348Z,13.40
2022-10-30T08:40:16.304Z,13.52
2022-10-30T08:42:44.187Z,13.62
2022-10-30T08:45:12.290Z,13.67
2022-10-30T08:47:41.687Z,13.72
2022-10-30T08:50:10.276Z,13.88
2022-10-30T08:53:01.894Z,14.01
2022-10-30T08:55:45.077Z,14.02
2022-10-30T08:58:14.438Z,14.19
2022-10-30T09:00:44.514Z,14.38
2022-10-30T09:03:14.703Z,14.48
2022-10-30T09:05:43.919Z,14.52
2022-10-30T09:08:12.380Z,14.64
2022-10-30T09:10:41.660Z,14.80
2022-10-30T09:13:10.958Z,15.04
2022-10-30T09:15:39.928Z,15.55
2022-10-30T09:18:08.514Z,16.09
2022-10-30T09:20:52.989Z,16.92
2022-10-30T09:23:21.780Z,17.53
2022-10-30T09:25:51.601Z,18.08
2022-10-30T09:28:23.110Z,18.37
2022-10-30T09:30:53.592Z,18.62
2022-10-30T09:33:22.453Z,18.97
2022-10-30T09:42:29.498Z,20.14
2022-10-30T09:45:29.294Z,20.18
2022-10-30T09:48:12.491Z,20.14
2022-10-30T09:50:48.886Z,20.67
2022-10-30T09:53:26.729Z,21.19
2022-10-30T09:56:05.004Z,21.19
2022-10-30T09:58:42.061Z,21.29
2022-10-30T10:01:18.269Z,21.21
2022-10-30T10:03:59.614Z,21.44
2022-10-30T10:06:29.197Z,21.69
2022-10-30T10:09:05.008Z,21.47
2022-10-30T10:11:38.411Z,21.68
2022-10-30T10:14:15.069Z,21.64
2022-10-30T10:16:46.818Z,21.74
2022-10-30T10:19:23.663Z,22.07
2022-10-30T10:21:57.896Z,22.10
2022-10-30T10:24:31.352Z,22.32
2022-10-30T10:27:17.190Z,22.37
2022-10-30T10:29:58.658Z,22.30
2022-10-30T10:32:46.881Z,22.11
2022-10-30T10:35:31.574Z,22.40
2022-10-30T10:38:10.232Z,22.77
2022-10-30T10:40:53.751Z,22.68
2022-10-30T10:43:37.050Z,23.02
2022-10-30T10:46:23.032Z,23.16
2022-10-30T10:49:02.408Z,23.36
2022-10-30T10:51:35.672Z,23.46
2022-10-30T10:54:08.186Z,23.46
2022-10-30T10:56:43.893Z,23.63
2022-10-30T10:59:22.470Z,23.61
2022-10-30T11:01:58.841Z,23.58
2022-10-30T11:04:33.438Z,24.05
2022-10-30T11:07:20.594Z,24.51
2022-10-30T11:09:52.729Z,24.84
2022-10-30T11:12:28.514Z,25.14
2022-10-30T11:14:59.681Z,25.33
2022-10-30T11:17:34.709Z,25.06
2022-10-30T11:20:13.168Z,24.75
2022-10-30T11:22:46.574Z,24.64
2022-10-30T11:25:26.871Z,24.59
2022-10-30T11:28:02.429Z,25.02
2022-10-30T11:30:30.524Z,25.41
2022-10-30T11:33:00.088Z,25.75
2022-10-30T11:35:28.198Z,26.15
2022-10-30T11:38:14.488Z,26.23
2022-10-30T11:40:48.223Z,26.15
2022-10-30T11:43:23.708Z,26.40
2022-10-30T11:45:52.446Z,26.41
2022-10-30T11:48:27.203Z,26.54
2022-10-30T11:51:00.252Z,26.60
2022-10-30T11:53:34.092Z,26.35
2022-10-30T11:56:04.854Z,26.76
2022-10-30T11:58:37.724Z,26.94
2022-10-30T12:01:08.119Z,27.21
2022-10-30T12:03:39.078Z,26.57
2022-10-30T12:06:17.246Z,26.51
2022-10-30T12:09:00.240Z,26.29
2022-10-30T12:11:31.586Z,26.38
2022-10-30T12:14:01.801Z,26.48
2022-10-30T12:16:30.640Z,26.68
2022-10-30T12:19:03.809Z,26.86
2022-10-30T12:21:37.949Z,27.02
2022-10-30T12:24:09.531Z,26.70
2022-10-30T12:26:39.188Z,26.78
2022-10-30T12:29:15.812Z,27.12
2022-10-30T12:31:50.594Z,27.13
2022-10-30T12:34:31.857Z,26.97
2022-10-30T12:37:07.941Z,26.57
2022-10-30T12:39:49.394Z,26.68
2022-10-30T12:42:20.130Z,26.50
2022-10-30T12:44:54.927Z,26.42
2022-10-30T12:47:32.362Z,26.45
2022-10-30T12:52:45.751Z,26.46
2022-10-30T12:55:21.516Z,26.59
2022-10-30T12:57:56.051Z,26.73
2022-10-30T13:00:31.315Z,27.00
2022-10-30T13:03:02.670Z,27.51
2022-10-30T13:05:38.782Z,28.13
2022-10-30T13:08:16.142Z,27.96
2022-10-30T13:10:47.780Z,27.54
2022-10-30T13:13:20.144Z,27.59
2022-10-30T13:15:52.380Z,27.59
2022-10-30T13:18:22.188Z,27.66
2022-10-30T13:21:02.879Z,27.61
2022-10-30T13:23:40.696Z,27.81
2022-10-30T13:26:18.235Z,27.78
2022-10-30T13:28:53.286Z,27.97
2022-10-30T13:31:33.347Z,28.01
2022-10-30T13:34:08.047Z,27.05
2022-10-30T13:39:24.645Z,26.70
2022-10-30T13:42:10.420Z,27.00
2022-10-30T13:44:49.924Z,27.43
2022-10-30T13:47:25.953Z,27.60
2022-10-30T13:50:17.083Z,27.27
2022-10-30T13:52:49.699Z,27.36
2022-10-30T13:55:23.852Z,26.75
2022-10-30T13:57:57.711Z,26.62
2022-10-30T14:00:35.707Z,25.81
2022-10-30T14:03:18.727Z,24.83
2022-10-30T14:05:52.081Z,24.68
2022-10-30T14:08:27.944Z,24.02
2022-10-30T14:11:00.709Z,23.59
2022-10-30T14:13:30.783Z,23.77
2022-10-30T14:16:02.486Z,24.00
2022-10-30T14:18:43.879Z,23.83
2022-10-30T14:21:31.961Z,23.39
2022-10-30T14:24:12.329Z,22.92
2022-10-30T14:26:42.258Z,22.63
2022-10-30T14:29:43.159Z,22.52
2022-10-30T14:32:49.488Z,21.86
2022-10-30T14:35:39.749Z,21.65
2022-10-30T14:38:26.881Z,21.33
2022-10-30T14:41:41.759Z,21.20
2022-10-30T14:44:21.885Z,21.05
2022-10-30T14:47:02.874Z,20.82
2022-10-30T14:49:44.715Z,20.69
2022-10-30T14:52:21.726Z,20.51
2022-10-30T14:54:55.645Z,20.47
2022-10-30T14:57:24.793Z,20.39
2022-10-30T15:00:44.576Z,20.33
2022-10-30T15:03:30.917Z,20.09
2022-10-30T15:06:03.501Z,20.11
2022-10-30T15:08:58.269Z,20.00
2022-10-30T15:11:36.886Z,20.03
2022-10-30T15:14:21.102Z,19.96
2022-10-30T15:16:52.119Z,19.84
2022-10-30T15:19:24.107Z,19.83
2022-10-30T15:21:54.792Z,19.74
2022-10-30T15:24:31.965Z,19.64
2022-10-30T15:27:02.201Z,19.56
2022-10-30T15:29:34.529Z,19.62
2022-10-30T15:32:04.793Z,19.59
2022-10-30T15:34:34.192Z,19.57
2022-10-30T15:37:12.740Z,19.53
2022-10-30T15:39:42.046Z,19.47
2022-10-30T15:42:11.444Z,19.49
2022-10-30T15:44:42.774Z,19.44
2022-10-30T15:47:16.409Z,19.37
2022-10-30T15:49:50.505Z,19.28
2022-10-30T15:52:23.063Z,19.40
2022-10-30T15:54:57.067Z,19.31
2022-10-30T15:58:01.688Z,19.19
2022-10-30T16:00:23.461Z,19.12
2022-10-30T16:03:01.331Z,19.05
2022-10-30T16:05:30.283Z,18.97
2022-10-30T16:07:59.213Z,18.94
2022-10-30T16:10:34.310Z,18.93
2022-10-30T16:13:03.803Z,18.85
2022-10-30T16:15:35.388Z,18.86
2022-10-30T16:18:08.378Z,18.79
2022-10-30T16:20:37.366Z,18.77
2022-10-30T16:23:06.637Z,18.73
2022-10-30T16:25:38.396Z,18.68
2022-10-30T16:28:24.697Z,18.56
2022-10-30T16:30:53.297Z,18.45
2022-10-30T16:33:27.383Z,18.51
2022-10-30T16:35:56.712Z,18.53
2022-10-30T16:38:27.554Z,18.45
2022-10-30T16:40:57.501Z,18.41
2022-10-30T16:43:29.029Z,18.27
2022-10-30T16:46:04.124Z,18.34
2022-10-30T16:48:37.146Z,18.24
2022-10-30T16:51:05.915Z,18.23
2022-10-30T16:53:34.109Z,18.25
2022-10-30T16:56:04.252Z,18.22
2022-10-30T16:58:33.096Z,18.20
2022-10-30T17:01:06.291Z,18.14
2022-10-30T17:03:39.133Z,18.04
2022-10-30T17:06:09.243Z,18.06
2022-10-30T17:08:43.004Z,18.00
2022-10-30T17:11:20.734Z,17.94
2022-10-30T17:13:59.962Z,17.96
2022-10-30T17:16:29.537Z,17.93
2022-10-30T17:19:00.143Z,17.80
2022-10-30T17:21:31.683Z,17.88
2022-10-30T17:24:01.592Z,17.87
2022-10-30T17:26:36.612Z,17.81
2022-10-30T17:29:04.612Z,17.83
2022-10-30T17:31:44.791Z,17.78
2022-10-30T17:34:15.979Z,17.75
2022-10-30T17:36:44.291Z,17.72
2022-10-30T17:39:12.244Z,17.71
2022-10-30T17:41:43.492Z,17.71
2022-10-30T17:44:20.025Z,17.50
2022-10-30T17:46:48.312Z,17.54
2022-10-30T17:49:25.878Z,17.50
2022-10-30T17:51:53.796Z,17.49
2022-10-30T17:54:21.780Z,17.43
2022-10-30T17:56:51.386Z,17.43
2022-10-30T17:59:19.399Z,17.38
2022-10-30T18:01:48.991Z,17.40
2022-10-30T18:04:21.127Z,17.37
2022-10-30T18:06:50.256Z,17.31
2022-10-30T18:09:18.171Z,17.25
2022-10-30T18:11:46.153Z,17.22
2022-10-30T18:14:17.742Z,17.25
2022-10-30T18:16:45.923Z,17.15
2022-10-30T18:19:14.280Z,17.19
2022-10-30T18:21:42.174Z,17.18
2022-10-30T18:24:12.866Z,16.97
2022-10-30T18:26:41.167Z,17.09
2022-10-30T18:29:09.488Z,16.97
2022-10-30T18:31:39.984Z,16.88
2022-10-30T18:34:15.104Z,16.87
2022-10-30T18:36:43.196Z,16.89
2022-10-30T18:39:12.996Z,16.89
2022-10-30T18:41:43.199Z,16.82
2022-10-30T18:44:14.784Z,16.77
2022-10-30T18:46:44.279Z,16.73
2022-10-30T18:49:13.628Z,16.73
2022-10-30T18:51:42.055Z,16.79
2022-10-30T18:54:15.838Z,16.80
2022-10-30T18:56:44.533Z,16.78
2022-10-30T18:59:12.478Z,16.84
2022-10-30T19:01:44.602Z,16.81
2022-10-30T19:04:14.027Z,16.74
2022-10-30T19:06:44.798Z,16.64
2022-10-30T19:09:12.734Z,16.66
2022-10-30T19:11:44.439Z,16.75
2022-10-30T19:14:14.026Z,16.62
2022-10-30T19:16:42.292Z,16.69
2022-10-30T19:19:11.670Z,16.63
2022-10-30T19:21:41.049Z,16.61
2022-10-30T19:24:13.830Z,16.55
2022-10-30T19:26:41.929Z,16.55
2022-10-30T19:29:10.135Z,16.64
2022-10-30T19:31:38.122Z,16.60
2022-10-30T19:34:06.035Z,16.67
2022-10-30T19:36:36.952Z,16.55
2022-10-30T19:39:09.189Z,16.63
2022-10-30T19:41:37.567Z,16.63
2022-10-30T19:44:06.022Z,16.65
2022-10-30T19:46:34.495Z,16.72
2022-10-30T19:49:08.455Z,16.74
2022-10-30T19:51:37.792Z,16.74
2022-10-30T19:54:05.911Z,16.71
2022-10-30T19:56:33.919Z,16.69
2022-10-30T19:59:01.984Z,16.58
2022-10-30T20:01:30.255Z,16.53
2022-10-30T20:03:58.504Z,16.47
2022-10-30T20:06:27.156Z,16.49
2022-10-30T20:08:57.682Z,16.49
2022-10-30T20:11:25.599Z,16.43
2022-10-30T20:13:54.726Z,16.28
2022-10-30T20:16:22.769Z,16.24
2022-10-30T20:18:51.475Z,16.30
2022-10-30T20:21:20.973Z,16.16
2022-10-30T20:23:48.941Z,16.18
2022-10-30T20:26:25.096Z,16.02
2022-10-30T20:28:53.717Z,16.08
2022-10-30T20:31:21.990Z,16.07
2022-10-30T20:33:50.292Z,16.02
2022-10-30T20:36:18.285Z,15.98
2022-10-30T20:38:46.208Z,16.02
2022-10-30T20:41:23.299Z,15.87
2022-10-30T20:43:51.868Z,15.95
2022-10-30T20:46:20.441Z,16.00
2022-10-30T20:48:48.796Z,15.96
2022-10-30T20:51:17.062Z,15.93
2022-10-30T20:53:45.108Z,15.80
2022-10-30T20:56:14.563Z,15.87
2022-10-30T20:58:44.107Z,15.80
2022-10-30T21:01:13.688Z,15.84
2022-10-30T21:03:42.795Z,15.83
2022-10-30T21:06:12.668Z,15.82
2022-10-30T21:08:40.655Z,15.88
2022-10-30T21:11:09.329Z,15.81
2022-10-30T21:13:38.140Z,15.80
2022-10-30T21:16:09.892Z,15.83
2022-10-30T21:18:37.761Z,15.75
2022-10-30T21:21:07.968Z,15.67
2022-10-30T21:23:35.944Z,15.65
2022-10-30T21:26:05.887Z,15.57
2022-10-30T21:28:35.224Z,15.71
2022-10-30T21:31:04.023Z,15.69
2022-10-30T21:33:34.440Z,15.65
2022-10-30T21:36:10.896Z,15.57
2022-10-30T21:38:41.588Z,15.64
2022-10-30T21:41:09.977Z,15.63
2022-10-30T21:43:37.954Z,15.59
2022-10-30T21:46:07.178Z,15.54
2022-10-30T21:48:36.564Z,15.35
2022-10-30T21:51:09.820Z,15.50
2022-10-30T21:53:38.093Z,15.39
2022-10-30T21:56:07.935Z,15.35
2022-10-30T21:58:36.006Z,15.27
2022-10-30T22:01:05.337Z,15.14
2022-10-30T22:03:33.935Z,15.27
2022-10-30T22:06:08.647Z,15.24
2022-10-30T22:08:36.606Z,15.25
2022-10-30T22:11:05.762Z,15.11
2022-10-30T22:13:33.903Z,15.05
2022-10-30T22:16:02.890Z,15.14
2022-10-30T22:18:30.964Z,15.10
2022-10-30T22:21:02.756Z,15.18
2022-10-30T22:23:32.066Z,15.10
2022-10-30T22:26:02.054Z,15.10
2022-10-30T22:28:32.293Z,14.97
2022-10-30T22:31:04.069Z,14.89
2022-10-30T22:33:33.352Z,14.92
2022-10-30T22:36:06.871Z,14.86
2022-10-30T22:38:36.586Z,14.82
2022-10-30T22:41:12.616Z,14.83
2022-10-30T22:43:41.229Z,14.77
2022-10-30T22:46:10.489Z,14.70
2022-10-30T22:48:38.615Z,14.77
2022-10-30T22:51:13.418Z,14.68
2022-10-30T22:53:46.761Z,14.82
2022-10-30T22:56:17.529Z,14.83
2022-10-30T22:58:46.443Z,14.83
2022-10-30T23:01:17.028Z,14.77
2022-10-30T23:03:45.358Z,14.77
2022-10-30T23:06:14.296Z,14.71
2022-10-30T23:08:42.643Z,14.76
2022-10-30T23:11:12.500Z,14.77
2022-10-30T23:13:41.395Z,14.80
2022-10-30T23:16:12.534Z,14.77
2022-10-30T23:18:41.279Z,14.77
2022-10-30T23:21:14.535Z,14.76
2022-10-30T23:23:43.199Z,14.87
2022-10-30T23:26:16.103Z,14.81
2022-10-30T23:28:45.070Z,14.80
2022-10-30T23:31:19.243Z,14.81
2022-10-30T23:33:48.692Z,14.83
2022-10-30T23:36:17.316Z,14.81
2022-10-30T23:38:45.360Z,14.72
2022-10-30T23:41:14.748Z,14.75
2022-10-30T23:43:42.675Z,14.74
2022-10-30T23:46:10.642Z,14.68
2022-10-30T23:48:38.600Z,14.67
2022-10-30T23:51:10.147Z,14.65
2022-10-30T23:53:38.027Z,14.64
2022-10-30T23:56:06.971Z,14.60
2022-10-30T23:58:36.318Z,14.62
